Meteorología y climatología de Navarra
Datos de la estación - Meteo Navarra

Estación de Tafalla GN

Altitud 430 m.


Datos desde el 10/10/2019 hasta el 11/10/2019 en horario solar
Los datos son PROVISIONALES

Anterior Página 1 de 1 Siguiente Descargar: Formato para Excel 2000 o superior   Formato csv   Formato para OpenOffice Calc
Fecha Temperatura Humedad relativa Radiación global Insolación Precipitación Vel. viento 10 m Vel. viento 10 m Dir. viento 10 m
ºC % W/m² s l/m² m/s km/h º
10/10/2019 0:00 11.5 74 0.0 0 0.0 1.8 6.4 320
10/10/2019 0:10 9.9 79 0.0 0 0.0 2.7 9.9 277
10/10/2019 0:20 9.4 82 0.0 0 0.0 1.4 4.9 276
10/10/2019 0:30 9.0 83 0.0 0 0.0 1.4 4.9 277
10/10/2019 0:40 9.1 84 0.0 0 0.0 1.9 6.7 271
10/10/2019 0:50 9.1 84 0.0 0 0.0 2.2 7.9 278
10/10/2019 1:00 9.1 84 0.0 0 0.0 2.1 7.5 285
10/10/2019 1:10 9.6 83 0.0 0 0.0 1.7 6.0 292
10/10/2019 1:20 10.1 81 0.0 0 0.0 2.0 7.1 269
10/10/2019 1:30 9.7 82 0.0 0 0.0 1.9 6.8 273
10/10/2019 1:40 9.0 84 0.0 0 0.0 1.7 6.2 318
10/10/2019 1:50 9.1 84 0.0 0 0.0 2.0 7.2 317
10/10/2019 2:00 9.7 83 0.0 0 0.0 2.5 8.9 301
10/10/2019 2:10 10.2 81 0.0 0 0.0 2.6 9.4 303
10/10/2019 2:20 9.9 83 0.0 0 0.0 2.8 10.0 297
10/10/2019 2:30 9.9 83 0.0 0 0.0 3.5 12.6 296
10/10/2019 2:40 10.5 81 0.0 0 0.0 3.8 13.7 302
10/10/2019 2:50 10.8 79 0.0 0 0.0 3.7 13.4 300
10/10/2019 3:00 10.3 81 0.0 0 0.0 3.0 10.9 299
10/10/2019 3:10 9.9 82 0.0 0 0.0 3.1 11.0 294
10/10/2019 3:20 9.5 83 0.0 0 0.0 2.5 9.1 291
10/10/2019 3:30 8.9 84 0.0 0 0.0 2.9 10.3 279
10/10/2019 3:40 9.1 84 0.0 0 0.0 3.2 11.5 290
10/10/2019 3:50 9.7 83 0.0 0 0.0 3.5 12.5 299
10/10/2019 4:00 9.5 83 0.0 0 0.0 4.1 14.9 308
10/10/2019 4:10 9.6 84 0.0 0 0.0 4.3 15.4 303
10/10/2019 4:20 9.5 84 0.0 0 0.0 4.1 14.6 297
10/10/2019 4:30 8.7 85 0.0 0 0.0 3.3 11.9 281
10/10/2019 4:40 8.0 88 0.0 0 0.0 3.2 11.6 274
10/10/2019 4:50 8.1 88 0.0 0 0.0 3.4 12.2 273
10/10/2019 5:00 7.9 88 0.0 0 0.0 3.5 12.6 281
10/10/2019 5:10 7.9 89 0.0 0 0.0 3.5 12.7 282
10/10/2019 5:20 7.9 89 0.0 0 0.0 3.8 13.8 280
10/10/2019 5:30 7.9 89 0.0 0 0.0 3.8 13.8 280
10/10/2019 5:40 7.9 89 0.0 0 0.0 4.1 14.9 281
10/10/2019 5:50 7.9 89 0.0 0 0.0 4.0 14.5 275
10/10/2019 6:00 7.9 89 0.0 0 0.0 3.3 11.9 267
10/10/2019 6:10 8.1 89 0.0 0 0.0 3.3 11.8 277
10/10/2019 6:20 8.1 88 0.0 0 0.0 3.1 11.0 279
10/10/2019 6:30 7.7 89 14.2 0 0.0 3.5 12.5 277
10/10/2019 6:40 8.1 88 38.1 534 0.0 3.3 11.9 283
10/10/2019 6:50 7.5 89 62.5 600 0.0 3.5 12.5 281
10/10/2019 7:00 7.3 89 89.2 600 0.0 3.4 12.1 285
10/10/2019 7:10 7.6 89 117.5 600 0.0 4.0 14.4 279
10/10/2019 7:20 8.0 88 146.1 600 0.0 3.4 12.3 273
10/10/2019 7:30 8.6 87 175.2 600 0.0 2.4 8.8 256
10/10/2019 7:40 9.4 85 206.7 600 0.0 3.0 10.6 245
10/10/2019 7:50 9.8 82 238.2 600 0.0 2.6 9.3 250
10/10/2019 8:00 10.3 80 270.3 600 0.0 3.0 10.7 266
10/10/2019 8:10 10.7 79 301.4 600 0.0 2.8 10.1 271
10/10/2019 8:20 10.9 77 331.5 600 0.0 3.1 11.1 267
10/10/2019 8:30 11.5 76 361.3 600 0.0 3.2 11.7 255
10/10/2019 8:40 12.0 74 389.8 600 0.0 3.2 11.6 249
10/10/2019 8:50 12.7 72 417.0 600 0.0 2.9 10.3 238
10/10/2019 9:00 13.3 70 443.1 600 0.0 2.9 10.3 235
10/10/2019 9:10 13.8 67 468.2 600 0.0 2.3 8.3 239
10/10/2019 9:20 14.3 65 491.1 600 0.0 2.3 8.4 235
10/10/2019 9:30 15.0 63 517.7 600 0.0 2.7 9.5 221
10/10/2019 9:40 15.3 61 538.3 600 0.0 2.4 8.6 237
10/10/2019 9:50 15.5 60 556.5 600 0.0 1.3 4.6 224
10/10/2019 10:00 16.1 58 575.6 600 0.0 1.3 4.7 209
10/10/2019 10:10 16.5 57 593.9 600 0.0 1.7 6.2 213
10/10/2019 10:20 16.6 56 609.4 600 0.0 1.2 4.2 184
10/10/2019 10:30 17.1 54 622.5 600 0.0 1.6 5.7 205
10/10/2019 10:40 17.5 52 636.5 600 0.0 1.3 4.8 189
10/10/2019 10:50 17.9 51 646.4 600 0.0 1.1 4.1 145
10/10/2019 11:00 18.2 50 654.5 600 0.0 0.9 3.3 78
10/10/2019 11:10 17.9 50 663.6 600 0.0 2.1 7.5 116
10/10/2019 11:20 17.8 51 671.0 600 0.0 2.3 8.3 94
10/10/2019 11:30 18.2 49 674.7 600 0.0 1.8 6.5 118
10/10/2019 11:40 18.5 49 676.3 600 0.0 1.2 4.4 78
10/10/2019 11:50 19.2 47 678.5 600 0.0 1.7 6.2 143
10/10/2019 12:00 19.2 46 681.0 600 0.0 2.3 8.3 98
10/10/2019 12:10 19.2 46 681.3 600 0.0 2.4 8.7 131
10/10/2019 12:20 19.5 44 681.6 600 0.0 1.6 5.9 160
10/10/2019 12:30 20.5 40 682.0 600 0.0 1.9 6.9 195
10/10/2019 12:40 20.6 38 671.9 600 0.0 1.6 5.8 134
10/10/2019 12:50 20.2 39 663.0 600 0.0 2.2 8.0 75
10/10/2019 13:00 20.3 39 651.4 600 0.0 1.2 4.5 92
10/10/2019 13:10 20.7 38 633.2 600 0.0 1.0 3.7 102
10/10/2019 13:20 20.9 37 625.0 600 0.0 1.7 6.0 59
10/10/2019 13:30 21.0 36 611.0 600 0.0 1.2 4.2 320
10/10/2019 13:40 21.5 34 598.1 600 0.0 2.1 7.5 336
10/10/2019 13:50 21.5 33 579.6 600 0.0 1.4 5.2 309
10/10/2019 14:00 21.7 32 563.3 600 0.0 1.8 6.5 22
10/10/2019 14:10 21.9 32 541.5 600 0.0 1.6 5.7 67
10/10/2019 14:20 21.9 32 518.4 600 0.0 1.0 3.4 64
10/10/2019 14:30 22.3 31 495.9 600 0.0 1.8 6.4 22
10/10/2019 14:40 22.4 31 473.4 600 0.0 1.5 5.3 50
10/10/2019 14:50 22.3 31 451.1 600 0.0 1.6 5.8 54
10/10/2019 15:00 22.5 32 418.9 600 0.0 0.8 2.8 321
10/10/2019 15:10 22.4 32 398.0 600 0.0 1.5 5.3 303
10/10/2019 15:20 22.5 31 370.4 600 0.0 2.1 7.4 17
10/10/2019 15:30 22.5 31 339.7 600 0.0 1.5 5.4 12
10/10/2019 15:40 22.5 31 308.3 600 0.0 0.9 3.2 338
10/10/2019 15:50 22.7 30 278.2 600 0.0 0.9 3.1 26
10/10/2019 16:00 22.7 30 246.1 600 0.0 0.5 1.9 195
10/10/2019 16:10 22.9 30 216.9 600 0.0 1.0 3.7 170
10/10/2019 16:20 22.7 30 185.6 600 0.0 0.7 2.6 166
10/10/2019 16:30 22.3 31 153.9 600 0.0 0.7 2.4 41
10/10/2019 16:40 22.2 31 124.7 600 0.0 0.8 2.9 168
10/10/2019 16:50 22.3 32 99.8 600 0.0 1.5 5.5 198
10/10/2019 17:00 21.9 34 73.3 600 0.0 2.2 7.7 194
10/10/2019 17:10 21.0 36 45.6 600 0.0 1.5 5.4 201
10/10/2019 17:20 20.1 37 23.4 168 0.0 1.5 5.4 220
10/10/2019 17:30 19.3 37 0.0 0 0.0 2.3 8.4 228
10/10/2019 17:40 19.4 38 0.0 0 0.0 2.4 8.5 241
10/10/2019 17:50 18.9 40 0.0 0 0.0 0.8 2.7 140
10/10/2019 18:00 18.0 41 0.0 0 0.0 0.4 1.5 59
10/10/2019 18:10 17.5 44 0.0 0 0.0 0.9 3.3 93
10/10/2019 18:20 17.3 46 0.0 0 0.0 0.7 2.5 96
10/10/2019 18:30 16.9 49 0.0 0 0.0 0.6 2.2 92
10/10/2019 18:40 16.7 49 0.0 0 0.0 0.5 1.7 67
10/10/2019 18:50 16.8 49 0.0 0 0.0 0.7 2.4 60
10/10/2019 19:00 16.7 49 0.0 0 0.0 0.8 2.7 77
10/10/2019 19:10 16.5 49 0.0 0 0.0 0.5 1.8 63
10/10/2019 19:20 16.0 50 0.0 0 0.0 0.7 2.4 43
10/10/2019 19:30 15.6 51 0.0 0 0.0 0.4 1.3 31
10/10/2019 19:40 15.2 53 0.0 0 0.0 0.5 1.8 27
10/10/2019 19:50 14.8 53 0.0 0 0.0 1.0 3.6 46
10/10/2019 20:00 14.6 54 0.0 0 0.0 1.2 4.4 49
10/10/2019 20:10 14.5 54 0.0 0 0.0 1.0 3.6 43
10/10/2019 20:20 14.4 54 0.0 0 0.0 1.5 5.2 37
10/10/2019 20:30 14.3 55 0.0 0 0.0 2.1 7.6 35
10/10/2019 20:40 14.4 55 0.0 0 0.0 2.3 8.2 26
10/10/2019 20:50 14.5 55 0.0 0 0.0 2.1 7.6 25
10/10/2019 21:00 14.4 55 0.0 0 0.0 1.6 5.7 27
10/10/2019 21:10 14.3 55 0.0 0 0.0 1.7 6.2 27
10/10/2019 21:20 13.9 56 0.0 0 0.0 1.6 5.6 36
10/10/2019 21:30 13.8 57 0.0 0 0.0 1.5 5.4 41
10/10/2019 21:40 13.6 58 0.0 0 0.0 1.7 6.3 33
10/10/2019 21:50 13.7 57 0.0 0 0.0 1.9 6.7 35
10/10/2019 22:00 13.4 58 0.0 0 0.0 2.3 8.4 35
10/10/2019 22:10 13.8 57 0.0 0 0.0 1.0 3.7 86
10/10/2019 22:20 13.1 59 0.0 0 0.0 1.3 4.8 40
10/10/2019 22:30 13.3 58 0.0 0 0.0 2.4 8.6 22
10/10/2019 22:40 13.3 58 0.0 0 0.0 2.7 9.6 19
10/10/2019 22:50 13.0 59 0.0 0 0.0 2.6 9.3 28
10/10/2019 23:00 12.6 60 0.0 0 0.0 2.8 10.2 30
10/10/2019 23:10 12.5 60 0.0 0 0.0 2.8 10.0 25
10/10/2019 23:20 12.4 61 0.0 0 0.0 2.2 8.0 30
10/10/2019 23:30 13.1 58 0.0 0 0.0 1.8 6.6 36
10/10/2019 23:40 13.0 58 0.0 0 0.0 1.7 6.0 38
10/10/2019 23:50 12.8 59 0.0 0 0.0 1.3 4.7 37
Anterior Página 1 de 1 Siguiente

NOTA: Tipo de datos según el color:
   - Valores diarios o 10 minutos correctos
   - Valores diarios calculados a partir de un número de datos 10 minutos menor que 144 y mayor que 120, o de un número de datos semihorarios menor que 48 y mayor que 40 (caso de las estaciones de Riegos de Navarra y del MARM)
   - Valores diez minutos estimados


Contacto        Enlaces        Aviso legal